createdAt,value
2023-02-15T00:04:19.911Z,45.58
2023-02-15T00:09:23.841Z,38.45
2023-02-15T00:14:27.471Z,47.08
2023-02-15T00:19:32.505Z,48.45
2023-02-15T00:24:36.304Z,48.35
2023-02-15T00:29:40.099Z,46.03
2023-02-15T00:34:45.188Z,47.22
2023-02-15T00:39:48.940Z,43.22
2023-02-15T00:44:52.621Z,39.38
2023-02-15T00:49:59.288Z,41.58
2023-02-15T00:55:02.981Z,39.33
2023-02-15T01:00:08.025Z,38.35
2023-02-15T01:05:13.626Z,37.45
2023-02-15T01:10:18.133Z,33.72
2023-02-15T01:15:22.365Z,35.35
2023-02-15T01:20:29.579Z,44.08
2023-02-15T01:25:35.876Z,35.58
2023-02-15T01:30:39.633Z,45.22
2023-02-15T01:35:44.804Z,39.80
2023-02-15T01:40:48.508Z,41.25
2023-02-15T01:45:52.988Z,42.35
2023-02-15T01:51:00.912Z,38.47
2023-02-15T01:56:10.906Z,39.20
2023-02-15T02:01:14.584Z,36.33
2023-02-15T02:06:20.345Z,34.55
2023-02-15T02:11:24.487Z,37.00
2023-02-15T02:16:35.205Z,37.42
2023-02-15T02:22:10.238Z,40.42
2023-02-15T02:27:23.335Z,42.42
2023-02-15T02:32:56.859Z,42.78
2023-02-15T02:38:10.800Z,34.45
2023-02-15T02:43:22.691Z,33.83
2023-02-15T02:48:30.331Z,35.65
2023-02-15T02:53:36.402Z,31.45
2023-02-15T02:58:44.871Z,37.50
2023-02-15T03:03:52.752Z,38.72
2023-02-15T03:09:05.360Z,37.92
2023-02-15T03:14:09.367Z,32.63
2023-02-15T03:19:17.207Z,36.03
2023-02-15T03:24:29.889Z,35.90
2023-02-15T03:29:35.676Z,36.40
2023-02-15T03:34:39.792Z,34.83
2023-02-15T03:39:50.938Z,35.65
2023-02-15T03:45:00.618Z,35.78
2023-02-15T03:50:27.706Z,40.00
2023-02-15T03:55:33.116Z,31.67
2023-02-15T04:00:58.146Z,34.42
2023-02-15T04:06:03.527Z,33.60
2023-02-15T04:11:08.778Z,36.63
2023-02-15T04:16:12.459Z,39.38
2023-02-15T04:21:34.258Z,33.45
2023-02-15T04:26:39.284Z,33.03
2023-02-15T04:31:43.992Z,34.03
2023-02-15T04:36:47.773Z,34.88
2023-02-15T04:41:52.822Z,33.72
2023-02-15T04:46:56.891Z,33.38
2023-02-15T04:52:00.595Z,31.13
2023-02-15T04:57:05.711Z,35.88
2023-02-15T05:02:09.878Z,31.38
2023-02-15T05:07:13.593Z,32.35
2023-02-15T05:12:18.612Z,29.30
2023-02-15T05:17:22.247Z,25.30
2023-02-15T05:22:25.909Z,29.98
2023-02-15T05:27:48.630Z,31.98
2023-02-15T05:32:52.320Z,31.60
2023-02-15T05:37:55.993Z,34.25
2023-02-15T05:43:01.049Z,30.95
2023-02-15T05:48:04.966Z,36.72
2023-02-15T05:53:08.740Z,30.10
2023-02-15T05:58:13.758Z,31.50
2023-02-15T06:03:17.457Z,33.35
2023-02-15T06:08:21.499Z,33.45
2023-02-15T06:13:26.619Z,35.45
2023-02-15T06:18:30.378Z,32.63
2023-02-15T06:23:34.101Z,26.77
2023-02-15T06:28:39.383Z,32.10
2023-02-15T06:33:43.106Z,37.40
2023-02-15T06:38:46.864Z,34.08
2023-02-15T06:43:52.261Z,32.42
2023-02-15T06:48:56.032Z,33.05
2023-02-15T06:53:59.712Z,32.08
2023-02-15T06:59:04.715Z,33.20
2023-02-15T07:04:08.488Z,34.47
2023-02-15T07:09:12.324Z,31.30
2023-02-15T07:14:17.482Z,31.63
2023-02-15T07:19:21.204Z,29.77
2023-02-15T07:24:25.037Z,30.45
2023-02-15T07:29:30.348Z,32.00
2023-02-15T07:34:34.043Z,32.53
2023-02-15T07:39:37.765Z,33.22
2023-02-15T07:44:42.912Z,37.85
2023-02-15T07:49:46.939Z,32.35
2023-02-15T07:54:50.707Z,31.90
2023-02-15T07:59:55.938Z,31.48
2023-02-15T08:04:59.741Z,33.03
2023-02-15T08:10:03.577Z,33.10
2023-02-15T08:15:09.616Z,43.30
2023-02-15T08:20:14.491Z,36.40
2023-02-15T08:25:18.412Z,33.15
2023-02-15T08:30:23.757Z,34.92
2023-02-15T08:35:27.526Z,35.58
2023-02-15T08:40:31.281Z,36.40
2023-02-15T08:45:36.420Z,41.83
2023-02-15T08:50:40.534Z,33.17
2023-02-15T08:55:44.303Z,36.72
2023-02-15T09:00:49.426Z,32.88
2023-02-15T09:05:58.328Z,37.72
2023-02-15T09:11:12.291Z,46.00
2023-02-15T09:16:17.925Z,38.50
2023-02-15T09:21:23.235Z,36.50
2023-02-15T09:26:27.493Z,34.38
2023-02-15T09:31:34.419Z,35.00
2023-02-15T09:36:39.711Z,35.13
2023-02-15T09:42:08.904Z,34.58
2023-02-15T09:47:36.020Z,31.38
2023-02-15T09:53:03.122Z,32.75
2023-02-15T09:58:16.623Z,31.50
2023-02-15T10:03:42.182Z,32.75
2023-02-15T10:08:59.265Z,30.13
2023-02-15T10:14:16.606Z,35.25
2023-02-15T10:19:30.281Z,32.53
2023-02-15T10:24:49.288Z,32.47
2023-02-15T10:30:06.079Z,34.05
2023-02-15T10:40:31.082Z,30.50
2023-02-15T10:45:46.846Z,37.40
2023-02-15T10:50:54.802Z,34.03
2023-02-15T10:56:05.267Z,32.55
2023-02-15T11:01:22.404Z,31.85
2023-02-15T11:06:29.475Z,27.17
2023-02-15T11:16:41.838Z,33.70
2023-02-15T11:21:51.085Z,33.90
2023-02-15T11:26:59.698Z,32.30
2023-02-15T11:32:13.715Z,29.95
2023-02-15T11:37:26.450Z,34.83
2023-02-15T11:42:33.611Z,33.85
2023-02-15T11:47:37.342Z,35.70
2023-02-15T11:52:42.419Z,36.17
2023-02-15T11:57:52.564Z,42.25
2023-02-15T12:02:59.470Z,34.67
2023-02-15T12:08:11.592Z,35.63
2023-02-15T12:13:17.328Z,33.85
2023-02-15T12:18:29.449Z,33.92
2023-02-15T12:23:35.762Z,29.45
2023-02-15T12:28:43.251Z,37.77
2023-02-15T12:33:48.215Z,35.88
2023-02-15T12:39:23.263Z,37.83
2023-02-15T12:44:30.040Z,35.67
2023-02-15T12:49:34.995Z,41.03
2023-02-15T12:54:44.922Z,36.58
2023-02-15T12:59:53.251Z,36.90
2023-02-15T13:04:58.708Z,30.33
2023-02-15T13:10:04.017Z,33.65
2023-02-15T13:15:28.226Z,32.10
2023-02-15T13:20:32.989Z,31.45
2023-02-15T13:25:48.266Z,34.13
2023-02-15T13:30:53.324Z,38.65
2023-02-15T13:36:04.912Z,31.33
2023-02-15T13:41:16.948Z,33.90
2023-02-15T13:46:36.445Z,27.80
2023-02-15T13:51:45.575Z,32.03
2023-02-15T13:57:03.521Z,33.33
2023-02-15T14:02:35.801Z,33.42
2023-02-15T14:07:56.209Z,33.63
2023-02-15T14:13:31.411Z,30.33
2023-02-15T14:18:42.173Z,32.35
2023-02-15T14:23:56.617Z,38.35
2023-02-15T14:29:08.903Z,33.63
2023-02-15T14:34:23.157Z,29.48
2023-02-15T14:39:56.328Z,37.53
2023-02-15T14:45:06.704Z,37.05
2023-02-15T14:50:45.219Z,41.58
2023-02-15T14:55:49.150Z,39.53
2023-02-15T15:00:52.960Z,36.15
2023-02-15T15:06:03.228Z,35.97
2023-02-15T15:11:43.832Z,31.70
2023-02-15T15:16:53.374Z,35.13
2023-02-15T15:22:04.328Z,36.67
2023-02-15T15:27:39.968Z,40.50
2023-02-15T15:32:50.776Z,36.83
2023-02-15T15:38:23.169Z,41.92
2023-02-15T15:43:41.669Z,39.50
2023-02-15T15:48:45.636Z,37.25
2023-02-15T15:53:54.347Z,41.67
2023-02-15T15:59:02.491Z,31.90
2023-02-15T16:04:06.399Z,31.88
2023-02-15T16:09:18.655Z,37.10
2023-02-15T16:14:31.022Z,31.67
2023-02-15T16:19:39.782Z,36.67
2023-02-15T16:25:21.433Z,38.38
2023-02-15T16:30:31.084Z,33.85
2023-02-15T16:35:35.537Z,36.92
2023-02-15T16:40:53.456Z,40.45
2023-02-15T16:46:05.746Z,36.22
2023-02-15T16:51:10.706Z,34.08
2023-02-15T16:56:16.973Z,38.10
2023-02-15T17:01:24.937Z,34.43
2023-02-15T17:06:30.471Z,34.25
2023-02-15T17:11:41.811Z,38.40
2023-02-15T17:16:50.358Z,39.25
2023-02-15T17:21:56.608Z,39.88
2023-02-15T17:27:05.991Z,36.10
2023-02-15T17:32:18.868Z,38.58
2023-02-15T17:37:28.458Z,33.97
2023-02-15T17:42:33.525Z,35.72
2023-02-15T17:47:37.372Z,37.95
2023-02-15T17:52:41.096Z,33.10
2023-02-15T17:57:46.173Z,32.88
2023-02-15T18:03:07.211Z,40.17
2023-02-15T18:08:31.559Z,40.95
2023-02-15T18:13:36.664Z,37.53
2023-02-15T18:18:40.407Z,39.47
2023-02-15T18:23:44.134Z,37.28
2023-02-15T18:28:49.302Z,36.05
2023-02-15T18:33:55.756Z,35.60
2023-02-15T18:39:04.759Z,37.08
2023-02-15T18:44:13.727Z,33.42
2023-02-15T18:49:17.495Z,38.90
2023-02-15T18:54:23.930Z,40.63
2023-02-15T18:59:30.613Z,33.65
2023-02-15T19:04:34.381Z,37.03
2023-02-15T19:09:39.527Z,37.25
2023-02-15T19:14:45.057Z,37.45
2023-02-15T19:19:49.121Z,45.65
2023-02-15T19:24:53.874Z,47.67
2023-02-15T19:30:00.586Z,42.25
2023-02-15T19:35:05.382Z,39.15
2023-02-15T19:40:21.316Z,44.47
2023-02-15T19:45:29.674Z,47.15
2023-02-15T19:50:35.492Z,41.78
2023-02-15T19:55:39.307Z,48.55
2023-02-15T20:00:44.416Z,42.70
2023-02-15T20:05:48.190Z,46.25
2023-02-15T20:10:51.978Z,42.55
2023-02-15T20:15:57.156Z,40.00
2023-02-15T20:21:02.374Z,48.70
2023-02-15T20:26:14.479Z,47.13
2023-02-15T20:31:20.680Z,47.55
2023-02-15T20:36:24.798Z,49.40
2023-02-15T20:41:37.628Z,49.35
2023-02-15T20:46:42.829Z,45.70
2023-02-15T20:51:47.571Z,47.08
2023-02-15T20:56:51.598Z,49.40
2023-02-15T21:02:00.420Z,44.67
2023-02-15T21:07:04.498Z,52.38
2023-02-15T21:12:14.352Z,43.47
2023-02-15T21:17:21.073Z,45.75
2023-02-15T21:22:24.873Z,47.40
2023-02-15T21:27:29.719Z,50.05
2023-02-15T21:32:35.736Z,48.53
2023-02-15T21:37:40.254Z,45.22
2023-02-15T21:43:01.256Z,48.78
2023-02-15T21:48:06.572Z,46.50
2023-02-15T21:53:13.793Z,53.72
2023-02-15T21:58:21.214Z,46.53
2023-02-15T22:03:27.701Z,51.65
2023-02-15T22:08:36.856Z,48.47
2023-02-15T22:13:41.245Z,53.25
2023-02-15T22:18:47.088Z,46.85
2023-02-15T22:23:50.899Z,46.63
2023-02-15T22:28:54.808Z,45.10
2023-02-15T22:33:59.940Z,51.05
2023-02-15T22:39:03.626Z,45.75
2023-02-15T22:44:07.414Z,46.55
2023-02-15T22:49:14.608Z,49.63
2023-02-15T22:54:19.768Z,44.47
2023-02-15T22:59:28.392Z,45.13
2023-02-15T23:04:33.604Z,49.67
2023-02-15T23:09:37.287Z,44.90
2023-02-15T23:14:41.095Z,48.72
2023-02-15T23:19:46.674Z,52.58
2023-02-15T23:24:53.886Z,46.95
2023-02-15T23:29:57.686Z,45.70
2023-02-15T23:35:02.867Z,50.47
2023-02-15T23:40:27.975Z,51.63
2023-02-15T23:45:38.158Z,45.53
2023-02-15T23:50:43.750Z,46.38
2023-02-15T23:55:47.654Z,49.30
